Accueil
METAR-TAF:

METAR-TAF

Aéroports :

Salon-de-Provence, France

Base aérienne 701 Salon-de-Provence

latitude: 43-36N, longitude: 005-06E, altitude: 59 m

Observation

Le bulletin a été fait il y a 37 minutes, à 22:00 UTC
Vent 12 kt de nord-ouest
Température 8°C
Humidité 57%
Pression 1012 hPa
Visibilité 10 km ou plus
pas de nuages en-dessous de 1500 mètres et pas de cumulonimbus.

METAR: LFMY 272200Z AUTO 32012KT CAVOK 08/00 Q1012

Heure: 00:37 (22:37 UTC)

Prévision

Le bulletin a été fait il y a 8 heures et 37 minutes, à 14:00 UTC
Prévision valable du 27 à 15 UTC au 28 à 15 UTC
Vent 12 kt de nord/nord-ouest avec des rafales jusqu'à 22 kt
Visibilité 10 km ou plus
pas de nuages en-dessous de 1500 mètres et pas de cumulonimbus.
Evoluant progressivement
du 27 à 17 UTC au 27 à 19 UTC
Vent 20 kt de nord/nord-ouest avec des rafales jusqu'à 40 kt

TAF: LFMY 271400Z 2715/2815 34012G22KT CAVOK BECMG 2717/2719 34020G40KT

Observations et prévisions météorologiques de plus de 4000 aéroports (messages METAR et TAF).

Les stations disponibles sont représentées par des disques jaunes et rouges sur la carte.

Passer la souris dessus pour voir le nom de la station.

Cliquer dessus pour voir les observations et prévisions météorologiques.

Pour changer de carte: cliquez sur les boutons verts avec une croix noire pour zoomer, sur le bouton vert avec un tiret pour effectuer un zoom arrière, ou sur les flèches vertes pour les cartes adjacentes.


METAR-TAF: